createdAt,value
2023-11-15T00:00:48.582Z,11.50
2023-11-15T00:01:48.585Z,12.60
2023-11-15T00:02:48.716Z,11.60
2023-11-15T00:03:48.666Z,12.20
2023-11-15T00:04:48.724Z,11.50
2023-11-15T00:05:48.760Z,11.90
2023-11-15T00:06:48.735Z,11.80
2023-11-15T00:07:48.655Z,12.90
2023-11-15T00:08:48.728Z,13.80
2023-11-15T00:09:48.672Z,13.90
2023-11-15T00:10:48.901Z,14.00
2023-11-15T00:11:48.721Z,14.10
2023-11-15T00:12:48.714Z,14.30
2023-11-15T00:13:48.719Z,16.20
2023-11-15T00:14:48.755Z,15.50
2023-11-15T00:15:48.777Z,15.90
2023-11-15T00:16:48.859Z,16.40
2023-11-15T00:17:48.827Z,16.80
2023-11-15T00:18:48.783Z,16.20
2023-11-15T00:19:48.824Z,13.90
2023-11-15T00:20:48.822Z,13.40
2023-11-15T00:21:48.830Z,14.40
2023-11-15T00:22:49.078Z,14.40
2023-11-15T00:23:48.934Z,14.80
2023-11-15T00:24:48.871Z,15.20
2023-11-15T00:25:48.875Z,16.40
2023-11-15T00:26:48.946Z,16.70
2023-11-15T00:27:48.902Z,18.70
2023-11-15T00:28:49.054Z,18.40
2023-11-15T00:29:48.989Z,19.20
2023-11-15T00:30:48.919Z,19.80
2023-11-15T00:31:48.957Z,20.70
2023-11-15T00:32:49.005Z,19.50
2023-11-15T00:33:49.042Z,20.80
2023-11-15T00:34:49.011Z,21.30
2023-11-15T00:35:49.037Z,21.30
2023-11-15T00:36:48.986Z,20.50
2023-11-15T00:37:49.009Z,20.50
2023-11-15T00:38:49.053Z,20.80
2023-11-15T00:39:49.029Z,20.40
2023-11-15T00:40:49.039Z,20.90
2023-11-15T00:41:49.100Z,21.10
2023-11-15T00:42:49.057Z,21.40
2023-11-15T00:43:49.118Z,21.40
2023-11-15T00:44:49.160Z,22.00
2023-11-15T00:45:49.126Z,22.70
2023-11-15T00:46:49.370Z,24.20
2023-11-15T00:47:50.603Z,25.50
2023-11-15T00:48:49.127Z,26.30
2023-11-15T00:49:49.145Z,25.40
2023-11-15T00:50:49.221Z,27.10
2023-11-15T00:51:49.178Z,27.60
2023-11-15T00:52:49.327Z,28.60
2023-11-15T00:53:49.229Z,26.50
2023-11-15T00:54:49.193Z,26.40
2023-11-15T00:55:49.213Z,26.60
2023-11-15T00:56:49.264Z,25.20
2023-11-15T00:57:49.243Z,25.60
2023-11-15T00:58:49.346Z,25.80
2023-11-15T00:59:49.357Z,26.40
2023-11-15T01:00:49.327Z,25.80
2023-11-15T01:01:49.293Z,24.00
2023-11-15T01:02:49.334Z,24.00
2023-11-15T01:03:49.374Z,24.50
2023-11-15T01:04:49.462Z,22.20
2023-11-15T01:05:49.347Z,21.70
2023-11-15T01:06:49.338Z,22.20
2023-11-15T01:07:49.352Z,22.30
2023-11-15T01:08:49.368Z,21.90
2023-11-15T01:09:49.370Z,23.30
2023-11-15T01:10:49.619Z,21.80
2023-11-15T01:11:49.398Z,20.20
2023-11-15T01:12:49.398Z,20.80
2023-11-15T01:13:49.414Z,20.80
2023-11-15T01:14:49.477Z,20.10
2023-11-15T01:15:49.436Z,20.30
2023-11-15T01:16:49.543Z,19.30
2023-11-15T01:17:49.501Z,19.20
2023-11-15T01:18:49.464Z,19.10
2023-11-15T01:19:49.482Z,18.50
2023-11-15T01:20:49.515Z,18.30
2023-11-15T01:21:49.513Z,18.40
2023-11-15T01:22:49.505Z,18.30
2023-11-15T01:23:49.574Z,17.40
2023-11-15T01:24:49.530Z,19.40
2023-11-15T01:25:49.713Z,18.30
2023-11-15T01:26:49.654Z,18.40
2023-11-15T01:27:49.574Z,18.20
2023-11-15T01:28:49.574Z,18.10
2023-11-15T01:29:49.594Z,18.90
2023-11-15T01:30:49.608Z,18.00
2023-11-15T01:31:49.722Z,18.70
2023-11-15T01:32:49.677Z,18.40
2023-11-15T01:33:49.664Z,18.90
2023-11-15T01:34:49.668Z,18.50
2023-11-15T01:35:49.714Z,18.90
2023-11-15T01:36:49.668Z,18.90
2023-11-15T01:37:51.622Z,17.90
2023-11-15T01:38:49.702Z,19.00
2023-11-15T01:39:49.722Z,18.90
2023-11-15T01:40:49.720Z,16.90
2023-11-15T01:41:50.032Z,16.70
2023-11-15T01:42:49.777Z,16.00
2023-11-15T01:43:49.916Z,16.50
2023-11-15T01:44:49.840Z,15.60
2023-11-15T01:45:49.862Z,17.30
2023-11-15T01:46:49.933Z,15.50
2023-11-15T01:47:49.938Z,16.10
2023-11-15T01:48:49.817Z,15.40
2023-11-15T01:49:49.978Z,15.90
2023-11-15T01:50:49.875Z,15.50
2023-11-15T01:51:49.865Z,15.20
2023-11-15T01:52:49.864Z,15.20
2023-11-15T01:53:49.904Z,16.80
2023-11-15T01:54:49.885Z,15.50
2023-11-15T01:55:49.910Z,16.50
2023-11-15T01:56:49.946Z,16.30
2023-11-15T01:57:49.934Z,16.90
2023-11-15T01:58:49.932Z,17.30
2023-11-15T01:59:49.993Z,18.10
2023-11-15T02:00:49.963Z,17.60
2023-11-15T02:01:50.004Z,17.50
2023-11-15T02:02:50.125Z,17.00
2023-11-15T02:03:50.106Z,16.70
2023-11-15T02:04:50.003Z,16.60
2023-11-15T02:05:50.068Z,16.00
2023-11-15T02:06:50.174Z,15.90
2023-11-15T02:07:50.042Z,16.40
2023-11-15T02:08:50.071Z,15.90
2023-11-15T02:09:50.078Z,16.20
2023-11-15T02:10:50.077Z,16.40
2023-11-15T02:11:50.122Z,16.40
2023-11-15T02:12:50.100Z,16.40
2023-11-15T02:13:50.118Z,16.60
2023-11-15T02:14:50.161Z,16.70
2023-11-15T02:15:50.141Z,17.40
2023-11-15T02:16:50.161Z,16.70
2023-11-15T02:17:50.399Z,16.80
2023-11-15T02:18:50.166Z,17.10
2023-11-15T02:19:50.189Z,17.30
2023-11-15T02:20:50.236Z,18.50
2023-11-15T02:21:50.219Z,18.50
2023-11-15T02:22:50.423Z,19.40
2023-11-15T02:23:50.280Z,20.70
2023-11-15T02:24:50.237Z,21.50
2023-11-15T02:25:50.258Z,23.10
2023-11-15T02:26:50.329Z,24.40
2023-11-15T02:27:50.305Z,25.60
2023-11-15T02:28:50.290Z,26.20
2023-11-15T02:29:50.346Z,28.80
2023-11-15T02:30:50.335Z,31.00
2023-11-15T02:31:50.336Z,31.80
2023-11-15T02:32:50.494Z,33.20
2023-11-15T02:33:50.370Z,34.40
2023-11-15T02:34:50.360Z,33.20
2023-11-15T02:35:50.413Z,33.80
2023-11-15T02:36:50.392Z,34.10
2023-11-15T02:37:50.402Z,37.50
2023-11-15T02:38:50.427Z,38.00
2023-11-15T02:39:50.431Z,38.90
2023-11-15T02:40:50.457Z,40.70
2023-11-15T02:41:50.485Z,41.30
2023-11-15T02:42:50.501Z,38.80
2023-11-15T02:43:50.461Z,43.00
2023-11-15T02:44:50.510Z,38.30
2023-11-15T02:45:50.566Z,41.80
2023-11-15T02:46:50.501Z,40.50
2023-11-15T02:47:50.559Z,38.90
2023-11-15T02:48:50.528Z,40.90
2023-11-15T02:49:50.535Z,42.20
2023-11-15T02:50:50.570Z,41.60
2023-11-15T02:51:50.553Z,40.80
2023-11-15T02:52:50.636Z,45.00
2023-11-15T02:53:50.616Z,46.20
2023-11-15T02:54:50.584Z,42.60
2023-11-15T02:55:50.608Z,44.10
2023-11-15T02:56:50.647Z,41.30
2023-11-15T02:57:50.647Z,40.50
2023-11-15T02:58:50.624Z,41.30
2023-11-15T02:59:50.701Z,35.30
2023-11-15T03:00:50.649Z,37.70
2023-11-15T03:01:50.730Z,39.60
2023-11-15T03:02:50.864Z,38.40
2023-11-15T03:03:50.824Z,34.90
2023-11-15T03:04:50.694Z,33.40
2023-11-15T03:05:50.754Z,33.40
2023-11-15T03:06:50.722Z,31.80
2023-11-15T03:07:50.744Z,34.60
2023-11-15T03:08:50.831Z,36.20
2023-11-15T03:09:50.775Z,35.00
2023-11-15T03:10:50.757Z,35.90
2023-11-15T03:11:50.785Z,33.40
2023-11-15T03:12:50.780Z,35.30
2023-11-15T03:13:50.804Z,33.90
2023-11-15T03:14:50.841Z,33.60
2023-11-15T03:15:50.847Z,34.50
2023-11-15T03:16:50.867Z,36.30
2023-11-15T03:17:50.961Z,34.20
2023-11-15T03:18:50.881Z,30.70
2023-11-15T03:19:50.862Z,31.70
2023-11-15T03:20:50.898Z,32.90
2023-11-15T03:21:50.884Z,31.20
2023-11-15T03:22:50.894Z,32.70
2023-11-15T03:23:50.944Z,30.90
2023-11-15T03:24:50.939Z,31.20
2023-11-15T03:25:50.941Z,29.50
2023-11-15T03:26:50.959Z,29.90
2023-11-15T03:27:51.021Z,30.20
2023-11-15T03:28:50.965Z,29.60
2023-11-15T03:29:51.070Z,32.40
2023-11-15T03:30:51.098Z,32.90
2023-11-15T03:31:51.027Z,32.40
2023-11-15T03:32:51.139Z,32.40
2023-11-15T03:33:51.148Z,32.60
2023-11-15T03:34:51.061Z,30.40
2023-11-15T03:35:51.149Z,30.30
2023-11-15T03:36:51.051Z,31.10
2023-11-15T03:37:51.061Z,30.90
2023-11-15T03:38:51.089Z,28.60
2023-11-15T03:39:51.104Z,30.30
2023-11-15T03:40:51.080Z,29.40
2023-11-15T03:41:51.158Z,29.40
2023-11-15T03:42:51.105Z,29.80
2023-11-15T03:43:51.129Z,31.90
2023-11-15T03:44:51.199Z,32.30
2023-11-15T03:45:51.150Z,31.80
2023-11-15T03:46:51.179Z,31.40
2023-11-15T03:47:51.252Z,32.10
2023-11-15T03:48:51.165Z,32.40
2023-11-15T03:49:51.191Z,32.10
2023-11-15T03:50:51.335Z,32.40
2023-11-15T03:51:51.208Z,34.90
2023-11-15T03:52:51.208Z,35.50
2023-11-15T03:53:51.258Z,34.40
2023-11-15T03:54:51.314Z,33.50
2023-11-15T03:55:51.250Z,33.60
2023-11-15T03:56:51.416Z,34.40
2023-11-15T03:57:51.296Z,35.70
2023-11-15T03:58:51.280Z,33.80
2023-11-15T03:59:51.363Z,37.30
2023-11-15T04:00:51.303Z,36.30
2023-11-15T04:01:55.432Z,36.00
2023-11-15T04:02:51.447Z,36.60
2023-11-15T04:03:51.547Z,36.30
2023-11-15T04:04:51.510Z,35.30
2023-11-15T04:05:51.398Z,35.60
2023-11-15T04:06:51.373Z,35.80
2023-11-15T04:07:51.382Z,35.90
2023-11-15T04:08:51.435Z,33.60
2023-11-15T04:09:51.403Z,34.60
2023-11-15T04:10:51.407Z,34.20
2023-11-15T04:11:51.440Z,38.80
2023-11-15T04:12:51.422Z,41.60
2023-11-15T04:13:51.470Z,44.00
2023-11-15T04:14:51.444Z,45.10
2023-11-15T04:15:51.473Z,35.90
2023-11-15T04:16:51.482Z,32.00
2023-11-15T04:17:51.569Z,29.90
2023-11-15T04:18:51.503Z,30.10
2023-11-15T04:19:51.514Z,28.40
2023-11-15T04:20:51.553Z,28.40
2023-11-15T04:22:00.987Z,29.00
2023-11-15T04:22:51.553Z,29.80
2023-11-15T04:23:51.601Z,29.70
2023-11-15T04:24:51.560Z,27.90
2023-11-15T04:25:51.581Z,27.20
2023-11-15T04:26:51.576Z,27.90
2023-11-15T04:27:51.601Z,27.80
2023-11-15T04:28:51.607Z,27.60
2023-11-15T04:29:51.649Z,26.20
2023-11-15T04:30:51.632Z,26.10
2023-11-15T04:31:51.653Z,23.90
2023-11-15T04:32:51.677Z,25.50
2023-11-15T04:33:51.653Z,26.90
2023-11-15T04:34:51.679Z,25.20
2023-11-15T04:35:51.716Z,26.70
2023-11-15T04:36:51.694Z,26.00
2023-11-15T04:37:51.713Z,26.10
2023-11-15T04:38:51.738Z,27.20
2023-11-15T04:39:51.721Z,26.20
2023-11-15T04:40:51.752Z,26.70
2023-11-15T04:41:51.901Z,26.40
2023-11-15T04:42:51.763Z,27.50
2023-11-15T04:43:51.768Z,27.80
2023-11-15T04:44:51.795Z,28.30
2023-11-15T04:45:51.793Z,28.40
2023-11-15T04:46:51.812Z,26.60
2023-11-15T04:47:51.876Z,27.90
2023-11-15T04:48:51.833Z,27.40
2023-11-15T04:49:51.837Z,28.60
2023-11-15T04:50:51.875Z,29.50
2023-11-15T04:51:51.851Z,28.60
2023-11-15T04:52:53.032Z,27.00
2023-11-15T04:53:51.907Z,26.90
2023-11-15T04:54:51.897Z,26.80
2023-11-15T04:55:51.899Z,24.80
2023-11-15T04:56:51.978Z,23.60
2023-11-15T04:57:51.931Z,22.30
2023-11-15T04:58:51.936Z,21.40
2023-11-15T04:59:51.967Z,20.80
2023-11-15T05:00:51.961Z,18.80
2023-11-15T05:01:51.959Z,17.90
2023-11-15T05:02:52.079Z,18.80
2023-11-15T05:03:52.096Z,20.20
2023-11-15T05:04:53.471Z,24.40
2023-11-15T05:05:52.039Z,33.20
2023-11-15T05:06:52.024Z,6.00
2023-11-15T05:07:52.020Z,24.60
2023-11-15T05:08:52.085Z,31.80
2023-11-15T05:09:52.045Z,33.40
2023-11-15T05:10:52.061Z,31.20
2023-11-15T05:11:52.154Z,28.90
2023-11-15T05:12:52.087Z,13.50
2023-11-15T05:13:52.096Z,4.40
2023-11-15T05:14:52.141Z,0.90
2023-11-15T05:15:52.137Z,2.00
2023-11-15T05:16:52.132Z,1.20
2023-11-15T05:17:52.286Z,2.70
2023-11-15T05:18:52.168Z,0.90
2023-11-15T05:19:52.180Z,2.00
2023-11-15T05:20:52.253Z,1.30
2023-11-15T05:21:52.191Z,1.60
2023-11-15T05:22:52.201Z,1.30
2023-11-15T05:23:52.955Z,0.80
2023-11-15T05:24:52.233Z,0.80
2023-11-15T05:25:52.227Z,1.50
2023-11-15T05:26:52.292Z,1.00
2023-11-15T05:27:52.241Z,1.50
2023-11-15T05:28:52.271Z,2.30
2023-11-15T05:29:52.287Z,1.00
2023-11-15T05:30:52.284Z,1.30
2023-11-15T05:32:52.361Z,999.90
2023-11-15T05:33:52.311Z,999.90
2023-11-15T05:34:52.321Z,999.90
2023-11-15T05:35:52.330Z,999.90
2023-11-15T05:36:52.340Z,999.90
2023-11-15T05:37:52.345Z,999.90
2023-11-15T05:38:52.405Z,999.90
2023-11-15T05:39:52.375Z,999.90
2023-11-15T05:40:52.388Z,999.90
2023-11-15T05:41:52.409Z,999.90
2023-11-15T05:42:52.416Z,999.90
2023-11-15T05:43:52.407Z,999.90
2023-11-15T05:44:52.443Z,999.90
2023-11-15T05:45:52.435Z,999.90
2023-11-15T05:46:52.456Z,999.90
2023-11-15T05:47:52.525Z,999.90
2023-11-15T05:48:52.476Z,999.90
2023-11-15T05:49:52.472Z,999.90
2023-11-15T05:50:54.067Z,999.90
2023-11-15T05:51:52.497Z,999.90
2023-11-15T05:52:52.526Z,999.90
2023-11-15T05:53:52.551Z,999.90
2023-11-15T05:54:52.556Z,999.90
2023-11-15T05:55:52.539Z,999.90
2023-11-15T05:56:52.588Z,999.90
2023-11-15T05:57:52.555Z,999.90
2023-11-15T05:58:52.581Z,999.90
2023-11-15T05:59:52.591Z,999.90
2023-11-15T06:00:52.613Z,999.90
2023-11-15T06:01:52.630Z,999.90
2023-11-15T06:02:52.761Z,999.90
2023-11-15T06:03:52.649Z,999.90
2023-11-15T06:04:52.635Z,999.90
2023-11-15T06:05:52.741Z,999.90
2023-11-15T06:06:52.669Z,999.90
2023-11-15T06:07:52.676Z,999.90
2023-11-15T06:08:52.722Z,999.90
2023-11-15T06:09:52.695Z,999.90
2023-11-15T06:10:52.715Z,999.90
2023-11-15T06:11:52.731Z,999.90
2023-11-15T06:12:52.728Z,999.90
2023-11-15T06:13:52.742Z,999.90
2023-11-15T06:14:52.781Z,999.90
2023-11-15T06:15:52.747Z,999.90
2023-11-15T06:16:52.811Z,999.90
2023-11-15T06:17:52.848Z,999.90
2023-11-15T06:18:52.801Z,999.90
2023-11-15T06:19:58.451Z,999.90
2023-11-15T06:20:52.853Z,999.90
2023-11-15T06:21:52.913Z,999.90
2023-11-15T06:22:52.850Z,999.90
2023-11-15T06:23:52.891Z,999.90
2023-11-15T06:24:52.866Z,999.90
2023-11-15T06:25:52.866Z,999.90
2023-11-15T06:26:52.980Z,999.90
2023-11-15T06:27:52.881Z,999.90
2023-11-15T06:28:52.898Z,999.90
2023-11-15T06:29:52.970Z,999.90
2023-11-15T06:30:52.958Z,999.90
2023-11-15T06:31:52.933Z,999.90
2023-11-15T06:32:53.006Z,999.90
2023-11-15T06:33:53.112Z,999.90
2023-11-15T06:34:52.969Z,999.90
2023-11-15T06:35:53.016Z,999.90
2023-11-15T06:36:52.985Z,999.90
2023-11-15T06:37:52.994Z,999.90
2023-11-15T06:38:53.055Z,999.90
2023-11-15T06:39:53.008Z,999.90
2023-11-15T06:40:53.033Z,999.90
2023-11-15T06:41:53.095Z,999.90
2023-11-15T06:42:53.049Z,999.90
2023-11-15T06:43:53.057Z,999.90
2023-11-15T06:44:53.120Z,999.90
2023-11-15T06:45:53.073Z,999.90
2023-11-15T06:46:53.152Z,999.90
2023-11-15T06:47:53.627Z,999.90
2023-11-15T06:48:53.144Z,999.90
2023-11-15T06:49:53.115Z,999.90
2023-11-15T06:50:53.196Z,999.90
2023-11-15T06:51:53.147Z,999.90
2023-11-15T06:52:53.156Z,999.90
2023-11-15T06:53:53.227Z,999.90
2023-11-15T06:54:53.180Z,999.90
2023-11-15T06:55:53.200Z,999.90
2023-11-15T06:56:53.224Z,999.90
2023-11-15T06:57:53.212Z,999.90
2023-11-15T06:58:53.232Z,999.90
2023-11-15T06:59:53.254Z,999.90
2023-11-15T07:00:53.272Z,999.90
2023-11-15T07:01:53.257Z,999.90
2023-11-15T07:02:53.380Z,999.90
2023-11-15T07:03:53.353Z,999.90
2023-11-15T07:04:53.291Z,999.90
2023-11-15T07:05:53.323Z,999.90
2023-11-15T07:06:53.314Z,999.90
2023-11-15T07:07:53.319Z,999.90
2023-11-15T07:08:53.377Z,999.90
2023-11-15T07:09:53.328Z,999.90
2023-11-15T07:10:53.352Z,999.90
2023-11-15T07:11:53.476Z,999.90
2023-11-15T07:12:56.511Z,999.90
2023-11-15T07:13:53.376Z,999.90
2023-11-15T07:14:53.409Z,999.90
2023-11-15T07:15:53.424Z,999.90
2023-11-15T07:16:53.417Z,999.90
2023-11-15T07:17:53.476Z,999.90
2023-11-15T07:18:53.636Z,999.90
2023-11-15T07:19:53.443Z,999.90
2023-11-15T07:20:53.481Z,999.90
2023-11-15T07:21:53.457Z,999.90
2023-11-15T07:22:53.478Z,999.90
2023-11-15T07:23:53.501Z,999.90
2023-11-15T07:24:53.499Z,999.90
2023-11-15T07:25:53.504Z,999.90
2023-11-15T07:26:53.569Z,999.90
2023-11-15T07:27:53.521Z,999.90
2023-11-15T07:28:53.552Z,999.90
2023-11-15T07:29:54.068Z,999.90
2023-11-15T07:30:53.564Z,999.90
2023-11-15T07:31:53.767Z,999.90
2023-11-15T07:32:53.643Z,999.90
2023-11-15T07:33:53.591Z,999.90
2023-11-15T07:34:53.609Z,999.90
2023-11-15T07:35:53.660Z,999.90
2023-11-15T07:36:53.634Z,999.90
2023-11-15T07:37:53.631Z,999.90
2023-11-15T07:38:53.750Z,999.90
2023-11-15T07:39:53.680Z,999.90
2023-11-15T07:40:53.682Z,999.90
2023-11-15T07:41:53.717Z,999.90
2023-11-15T07:42:53.692Z,999.90
2023-11-15T07:43:53.694Z,999.90
2023-11-15T07:44:53.753Z,999.90
2023-11-15T07:45:53.730Z,999.90
2023-11-15T07:46:53.731Z,999.90
2023-11-15T07:47:53.795Z,999.90
2023-11-15T07:48:53.938Z,999.90
2023-11-15T07:49:53.756Z,999.90
2023-11-15T07:50:53.828Z,999.90
2023-11-15T07:51:53.777Z,999.90
2023-11-15T07:52:53.795Z,999.90
2023-11-15T07:53:53.833Z,999.90
2023-11-15T07:54:53.829Z,999.90
2023-11-15T07:55:53.822Z,999.90
2023-11-15T07:56:53.864Z,999.90
2023-11-15T07:57:53.851Z,999.90
2023-11-15T07:58:53.864Z,999.90
2023-11-15T07:59:53.914Z,999.90
2023-11-15T08:00:53.890Z,999.90
2023-11-15T08:01:53.893Z,999.90
2023-11-15T08:02:54.083Z,999.90
2023-11-15T08:03:54.206Z,999.90
2023-11-15T08:04:54.000Z,999.90
2023-11-15T08:05:53.977Z,999.90
2023-11-15T08:06:53.973Z,999.90
2023-11-15T08:07:53.953Z,999.90
2023-11-15T08:08:54.015Z,999.90
2023-11-15T08:09:53.971Z,999.90
2023-11-15T08:10:53.995Z,999.90
2023-11-15T08:11:54.017Z,999.90
2023-11-15T08:12:54.011Z,999.90
2023-11-15T08:13:57.121Z,999.90
2023-11-15T08:14:54.048Z,999.90
2023-11-15T08:15:54.041Z,999.90
2023-11-15T08:16:54.054Z,999.90
2023-11-15T08:17:54.147Z,999.90
2023-11-15T08:18:54.208Z,999.90
2023-11-15T08:19:54.080Z,999.90
2023-11-15T08:20:54.178Z,999.90
2023-11-15T08:21:54.104Z,999.90
2023-11-15T08:23:54.149Z,999.90
2023-11-15T08:24:54.145Z,999.90
2023-11-15T08:25:54.160Z,999.90
2023-11-15T08:26:54.572Z,999.90
2023-11-15T08:27:54.166Z,999.90
2023-11-15T08:28:54.206Z,999.90
2023-11-15T08:29:54.233Z,999.90
2023-11-15T08:33:54.359Z,999.90
2023-11-15T08:34:54.256Z,999.90
2023-11-15T08:35:54.279Z,999.90
2023-11-15T08:36:54.331Z,999.90
2023-11-15T08:37:54.307Z,999.90
2023-11-15T08:38:54.345Z,999.90
2023-11-15T08:39:54.302Z,999.90
2023-11-15T08:40:54.318Z,999.90
2023-11-15T08:41:54.360Z,999.90
2023-11-15T08:42:54.337Z,999.90
2023-11-15T08:43:54.353Z,999.90
2023-11-15T08:44:54.426Z,999.90
2023-11-15T08:45:54.440Z,999.90
2023-11-15T08:46:54.393Z,999.90
2023-11-15T08:47:54.496Z,999.90
2023-11-15T08:48:54.582Z,999.90
2023-11-15T08:49:54.421Z,999.90
2023-11-15T08:50:54.434Z,999.90
2023-11-15T08:51:54.445Z,999.90
2023-11-15T08:53:54.492Z,999.90
2023-11-15T08:54:54.479Z,999.90
2023-11-15T08:55:54.493Z,999.90
2023-11-15T08:56:54.519Z,999.90
2023-11-15T08:57:54.547Z,999.90
2023-11-15T08:58:54.525Z,999.90
2023-11-15T08:59:54.578Z,999.90
2023-11-15T09:08:54.670Z,999.90
2023-11-15T09:09:54.653Z,999.90
2023-11-15T09:10:54.675Z,999.90
2023-11-15T09:11:54.693Z,999.90
2023-11-15T09:12:54.691Z,999.90
2023-11-15T09:13:54.710Z,999.90
2023-11-15T09:14:54.742Z,999.90
2023-11-15T09:15:54.742Z,999.90
2023-11-15T09:16:54.755Z,999.90
2023-11-15T09:17:54.903Z,999.90
2023-11-15T09:18:54.769Z,999.90
2023-11-15T09:19:54.791Z,999.90
2023-11-15T09:20:54.836Z,999.90
2023-11-15T09:21:54.811Z,999.90
2023-11-15T09:22:55.126Z,999.90
2023-11-15T09:23:54.851Z,999.90
2023-11-15T09:25:00.555Z,999.90
2023-11-15T09:25:54.868Z,999.90
2023-11-15T09:26:54.896Z,999.90
2023-11-15T09:27:54.902Z,999.90
2023-11-15T09:28:54.919Z,999.90
2023-11-15T09:29:54.944Z,999.90
2023-11-15T09:30:54.936Z,999.90
2023-11-15T09:31:54.958Z,999.90
2023-11-15T09:32:55.106Z,999.90
2023-11-15T09:33:55.129Z,999.90
2023-11-15T09:34:54.991Z,999.90
2023-11-15T09:36:00.780Z,999.90
2023-11-15T09:36:55.030Z,999.90
2023-11-15T09:37:56.312Z,999.90
2023-11-15T09:40:55.094Z,999.90
2023-11-15T09:41:55.562Z,999.90
2023-11-15T09:42:55.126Z,999.90
2023-11-15T09:43:55.140Z,999.90
2023-11-15T09:44:55.174Z,999.90
2023-11-15T09:45:55.168Z,999.90
2023-11-15T09:46:55.247Z,999.90
2023-11-15T09:47:55.316Z,999.90
2023-11-15T09:48:57.447Z,999.90
2023-11-15T09:49:55.335Z,999.90
2023-11-15T09:50:55.343Z,999.90
2023-11-15T09:51:55.325Z,999.90
2023-11-15T09:52:55.288Z,999.90
2023-11-15T09:53:57.817Z,999.90
2023-11-15T09:54:55.350Z,999.90
2023-11-15T09:55:55.354Z,999.90
2023-11-15T09:56:55.369Z,999.90
2023-11-15T09:57:55.385Z,999.90
2023-11-15T09:58:55.382Z,999.90
2023-11-15T10:00:05.041Z,999.90
2023-11-15T10:00:55.488Z,999.90
2023-11-15T10:01:55.451Z,999.90
2023-11-15T10:02:55.623Z,999.90
2023-11-15T10:03:55.593Z,999.90
2023-11-15T10:04:55.486Z,999.90
2023-11-15T10:05:55.530Z,999.90
2023-11-15T10:07:03.254Z,999.90
2023-11-15T10:07:55.544Z,999.90
2023-11-15T10:08:55.749Z,999.90
2023-11-15T10:09:55.578Z,999.90
2023-11-15T10:10:55.598Z,999.90
2023-11-15T10:11:55.644Z,999.90
2023-11-15T10:12:55.621Z,999.90
2023-11-15T10:13:55.648Z,999.90
2023-11-15T10:14:55.841Z,999.90
2023-11-15T10:15:55.817Z,999.90
2023-11-15T10:16:55.698Z,999.90
2023-11-15T10:20:55.834Z,999.90
2023-11-15T10:22:55.834Z,999.90
2023-11-15T10:23:55.836Z,999.90
2023-11-15T10:24:55.854Z,999.90
2023-11-15T10:25:55.871Z,999.90
2023-11-15T10:26:55.900Z,999.90
2023-11-15T10:27:55.912Z,999.90
2023-11-15T10:28:55.928Z,999.90
2023-11-15T10:29:55.961Z,999.90
2023-11-15T10:30:55.959Z,999.90
2023-11-15T10:31:55.982Z,999.90
2023-11-15T10:32:56.022Z,999.90
2023-11-15T10:33:56.022Z,999.90
2023-11-15T10:41:56.239Z,999.90
2023-11-15T10:42:56.558Z,999.90
2023-11-15T10:43:56.207Z,999.90
2023-11-15T10:44:56.249Z,999.90
2023-11-15T10:45:56.268Z,999.90
2023-11-15T10:46:56.271Z,999.90
2023-11-15T10:47:56.343Z,999.90
2023-11-15T10:48:56.307Z,999.90
2023-11-15T10:49:56.337Z,999.90
2023-11-15T10:50:56.422Z,999.90
2023-11-15T10:51:56.428Z,999.90
2023-11-15T10:52:56.387Z,999.90
2023-11-15T10:53:56.441Z,999.90
2023-11-15T10:54:56.429Z,999.90
2023-11-15T10:55:56.489Z,999.90
2023-11-15T10:56:56.491Z,999.90
2023-11-15T10:57:56.499Z,999.90
2023-11-15T10:58:56.516Z,999.90
2023-11-15T10:59:56.574Z,999.90
2023-11-15T11:00:56.557Z,999.90
2023-11-15T11:06:56.673Z,999.90
2023-11-15T11:07:56.698Z,999.90
2023-11-15T11:08:56.733Z,999.90
2023-11-15T11:09:56.746Z,999.90
2023-11-15T11:10:56.766Z,999.90
2023-11-15T11:11:56.833Z,999.90
2023-11-15T11:12:56.797Z,999.90
2023-11-15T11:13:56.825Z,999.90
2023-11-15T11:14:56.863Z,999.90
2023-11-15T11:15:56.888Z,999.90
2023-11-15T11:16:56.938Z,999.90
2023-11-15T11:17:56.950Z,999.90
2023-11-15T11:18:56.996Z,999.90
2023-11-15T11:19:56.972Z,999.90
2023-11-15T11:20:56.999Z,999.90
2023-11-15T11:21:56.993Z,999.90
2023-11-15T11:22:57.015Z,999.90
2023-11-15T11:27:57.141Z,999.90
2023-11-15T11:28:57.129Z,999.90
2023-11-15T11:29:57.265Z,999.90
2023-11-15T11:30:57.193Z,999.90
2023-11-15T11:31:57.238Z,999.90
2023-11-15T11:32:57.252Z,999.90
2023-11-15T11:33:57.240Z,999.90
2023-11-15T11:34:57.256Z,999.90
2023-11-15T11:35:57.316Z,999.90
2023-11-15T11:36:57.297Z,999.90
2023-11-15T11:37:57.396Z,999.90
2023-11-15T11:38:57.427Z,999.90
2023-11-15T11:39:57.389Z,999.90
2023-11-15T11:40:57.384Z,999.90
2023-11-15T11:41:57.550Z,999.90
2023-11-15T11:42:57.421Z,999.90
2023-11-15T11:43:57.479Z,999.90
2023-11-15T11:44:57.497Z,999.90
2023-11-15T11:45:57.551Z,999.90
2023-11-15T11:52:57.705Z,999.90
2023-11-15T11:53:57.717Z,999.90
2023-11-15T11:54:57.734Z,999.90
2023-11-15T11:55:57.709Z,999.90
2023-11-15T11:56:57.737Z,999.90
2023-11-15T11:57:57.745Z,999.90
2023-11-15T11:58:57.825Z,999.90
2023-11-15T11:59:57.839Z,999.90
2023-11-15T12:00:58.001Z,999.90
2023-11-15T12:01:57.892Z,999.90
2023-11-15T12:03:03.054Z,999.90
2023-11-15T12:03:57.981Z,999.90
2023-11-15T12:04:57.895Z,999.90
2023-11-15T12:05:57.958Z,999.90
2023-11-15T12:06:57.937Z,999.90
2023-11-15T12:07:58.035Z,999.90
2023-11-15T12:11:58.192Z,999.90
2023-11-15T12:12:58.078Z,999.90
2023-11-15T12:13:58.113Z,999.90
2023-11-15T12:14:58.168Z,999.90
2023-11-15T12:15:58.148Z,999.90
2023-11-15T12:16:58.228Z,999.90
2023-11-15T12:17:58.542Z,999.90
2023-11-15T12:18:58.239Z,999.90
2023-11-15T12:19:58.242Z,999.90
2023-11-15T12:20:58.288Z,999.90
2023-11-15T12:21:58.293Z,999.90
2023-11-15T12:22:58.303Z,999.90
2023-11-15T12:23:58.353Z,999.90
2023-11-15T12:24:58.359Z,999.90
2023-11-15T12:29:58.525Z,999.90
2023-11-15T12:30:58.537Z,999.90
2023-11-15T12:31:58.514Z,999.90
2023-11-15T12:32:58.730Z,999.90
2023-11-15T12:33:58.571Z,999.90
2023-11-15T12:34:58.583Z,999.90
2023-11-15T12:35:58.644Z,999.90
2023-11-15T12:36:58.631Z,999.90
2023-11-15T12:37:58.665Z,999.90
2023-11-15T12:38:58.803Z,999.90
2023-11-15T12:39:58.710Z,999.90
2023-11-15T12:40:58.725Z,998.00
2023-11-15T12:44:58.869Z,995.20
2023-11-15T12:45:58.855Z,992.00
2023-11-15T12:46:58.893Z,999.90
2023-11-15T12:47:58.959Z,989.20
2023-11-15T12:48:58.917Z,990.00
2023-11-15T12:49:58.947Z,978.10
2023-11-15T12:50:58.995Z,971.80
2023-11-15T12:51:59.009Z,963.10
2023-11-15T12:52:59.027Z,967.60
2023-11-15T12:56:59.143Z,961.10
2023-11-15T12:57:59.156Z,955.70
2023-11-15T12:58:59.185Z,949.70
2023-11-15T12:59:59.224Z,948.60
2023-11-15T13:00:59.499Z,934.10
2023-11-15T13:01:59.496Z,941.10
2023-11-15T13:02:59.456Z,937.60
2023-11-15T13:03:59.422Z,972.10
2023-11-15T13:04:59.331Z,944.10
2023-11-15T13:05:59.369Z,946.10
2023-11-15T13:09:59.438Z,966.60
2023-11-15T13:10:59.477Z,974.60
2023-11-15T13:11:59.532Z,980.10
2023-11-15T13:12:59.532Z,976.70
2023-11-15T13:13:59.538Z,990.00
2023-11-15T13:14:59.597Z,986.10
2023-11-15T13:15:59.603Z,984.20
2023-11-15T13:16:59.695Z,992.30
2023-11-15T13:17:59.739Z,999.90
2023-11-15T13:18:59.663Z,998.60
2023-11-15T13:20:02.601Z,999.90
2023-11-15T13:23:59.793Z,999.90
2023-11-15T13:24:59.880Z,999.90
2023-11-15T13:26:02.985Z,999.90
2023-11-15T13:26:59.882Z,999.90
2023-11-15T13:27:59.879Z,999.90
2023-11-15T13:28:59.906Z,999.90
2023-11-15T13:29:59.944Z,999.90
2023-11-15T13:30:59.948Z,999.90
2023-11-15T13:31:59.966Z,999.90
2023-11-15T13:33:00.112Z,994.80
2023-11-15T13:37:00.115Z,982.40
2023-11-15T13:38:00.133Z,968.30
2023-11-15T13:39:00.271Z,963.40
2023-11-15T13:40:00.215Z,946.90
2023-11-15T13:41:00.208Z,955.30
2023-11-15T13:42:00.264Z,957.00
2023-11-15T13:43:00.253Z,949.50
2023-11-15T13:44:00.376Z,947.30